createdAt,value
2018-07-07T00:01:18.651Z,24.54
2018-07-07T00:03:47.930Z,24.35
2018-07-07T00:06:17.084Z,24.06
2018-07-07T00:08:46.315Z,24.20
2018-07-07T00:11:15.462Z,24.31
2018-07-07T00:13:44.732Z,24.35
2018-07-07T00:16:14.535Z,24.09
2018-07-07T00:18:44.595Z,24.04
2018-07-07T00:21:13.809Z,24.08
2018-07-07T00:23:43.054Z,24.11
2018-07-07T00:26:12.452Z,24.13
2018-07-07T00:28:41.863Z,24.14
2018-07-07T00:31:11.133Z,24.20
2018-07-07T00:33:40.371Z,24.20
2018-07-07T00:36:09.532Z,24.22
2018-07-07T00:38:38.785Z,24.23
2018-07-07T00:41:08.053Z,24.24
2018-07-07T00:43:37.350Z,24.17
2018-07-07T00:46:06.655Z,24.16
2018-07-07T00:48:35.851Z,24.11
2018-07-07T00:51:05.006Z,24.10
2018-07-07T00:53:34.157Z,23.75
2018-07-07T00:56:03.300Z,23.78
2018-07-07T00:58:32.449Z,23.71
2018-07-07T01:01:01.809Z,23.62
2018-07-07T01:03:31.135Z,23.74
2018-07-07T01:06:00.502Z,23.78
2018-07-07T01:08:29.744Z,23.33
2018-07-07T01:10:59.043Z,23.24
2018-07-07T01:13:28.442Z,23.44
2018-07-07T01:15:57.847Z,23.33
2018-07-07T01:18:27.359Z,23.31
2018-07-07T01:20:56.686Z,23.39
2018-07-07T01:23:25.962Z,23.42
2018-07-07T01:25:55.669Z,22.72
2018-07-07T01:28:25.485Z,22.96
2018-07-07T01:30:54.976Z,22.98
2018-07-07T01:33:24.745Z,23.13
2018-07-07T01:35:54.625Z,22.90
2018-07-07T01:38:24.721Z,22.83
2018-07-07T01:40:53.970Z,23.02
2018-07-07T01:43:23.557Z,22.98
2018-07-07T01:45:53.142Z,22.87
2018-07-07T01:48:22.462Z,22.89
2018-07-07T01:50:51.686Z,22.82
2018-07-07T01:53:20.966Z,22.76
2018-07-07T01:55:50.221Z,22.68
2018-07-07T01:58:19.463Z,22.42
2018-07-07T02:00:48.809Z,22.39
2018-07-07T02:03:18.065Z,22.41
2018-07-07T02:05:47.316Z,22.48
2018-07-07T02:08:16.676Z,22.46
2018-07-07T02:10:45.991Z,22.43
2018-07-07T02:13:15.230Z,22.35
2018-07-07T02:15:44.573Z,22.29
2018-07-07T02:18:13.902Z,22.45
2018-07-07T02:20:43.131Z,22.18
2018-07-07T02:23:12.415Z,22.31
2018-07-07T02:25:41.643Z,22.30
2018-07-07T02:28:10.915Z,22.34
2018-07-07T02:30:40.150Z,22.31
2018-07-07T02:33:09.417Z,22.34
2018-07-07T02:35:38.659Z,22.29
2018-07-07T02:38:08.102Z,22.31
2018-07-07T02:40:37.377Z,22.36
2018-07-07T02:43:06.703Z,22.22
2018-07-07T02:45:36.082Z,22.21
2018-07-07T02:48:05.344Z,21.93
2018-07-07T02:50:34.671Z,21.71
2018-07-07T02:53:04.030Z,21.77
2018-07-07T02:55:33.283Z,21.84
2018-07-07T02:58:02.532Z,21.54
2018-07-07T03:00:31.738Z,21.47
2018-07-07T03:03:01.023Z,21.30
2018-07-07T03:05:30.262Z,21.06
2018-07-07T03:07:59.544Z,20.90
2018-07-07T03:10:28.874Z,20.73
2018-07-07T03:12:58.102Z,20.67
2018-07-07T03:15:27.452Z,20.69
2018-07-07T03:17:56.598Z,20.62
2018-07-07T03:20:25.853Z,20.71
2018-07-07T03:22:55.459Z,20.49
2018-07-07T03:25:24.781Z,20.62
2018-07-07T03:27:54.150Z,20.79
2018-07-07T03:30:23.486Z,20.94
2018-07-07T03:32:52.742Z,20.80
2018-07-07T03:35:22.071Z,20.61
2018-07-07T03:37:51.312Z,20.38
2018-07-07T03:40:20.551Z,20.37
2018-07-07T03:42:49.718Z,20.67
2018-07-07T03:45:19.238Z,21.00
2018-07-07T03:47:48.570Z,21.26
2018-07-07T03:50:17.929Z,21.21
2018-07-07T03:52:47.169Z,21.18
2018-07-07T03:55:16.466Z,21.21
2018-07-07T03:57:45.734Z,21.23
2018-07-07T04:00:14.973Z,21.52
2018-07-07T04:02:44.268Z,21.65
2018-07-07T04:05:13.572Z,21.71
2018-07-07T04:07:42.875Z,21.78
2018-07-07T04:10:12.376Z,21.77
2018-07-07T04:12:41.771Z,21.91
2018-07-07T04:15:11.121Z,22.03
2018-07-07T04:17:40.454Z,22.05
2018-07-07T04:20:09.717Z,22.14
2018-07-07T04:22:38.973Z,22.23
2018-07-07T04:25:08.181Z,22.31
2018-07-07T04:27:37.471Z,22.34
2018-07-07T04:30:06.787Z,22.42
2018-07-07T04:32:36.150Z,21.26
2018-07-07T04:35:05.381Z,21.02
2018-07-07T04:37:34.645Z,20.61
2018-07-07T04:40:03.990Z,20.45
2018-07-07T04:42:33.388Z,20.19
2018-07-07T04:45:02.676Z,20.41
2018-07-07T04:47:31.994Z,20.28
2018-07-07T04:50:01.416Z,20.19
2018-07-07T04:52:30.744Z,20.46
2018-07-07T04:55:00.301Z,20.19
2018-07-07T04:57:29.562Z,20.31
2018-07-07T04:59:58.901Z,20.51
2018-07-07T05:02:28.170Z,20.93
2018-07-07T05:04:57.506Z,20.73
2018-07-07T05:07:26.855Z,20.85
2018-07-07T05:09:56.117Z,21.21
2018-07-07T05:12:25.379Z,21.09
2018-07-07T05:14:54.721Z,20.99
2018-07-07T05:17:23.944Z,21.10
2018-07-07T05:19:53.289Z,21.60
2018-07-07T05:22:22.466Z,22.81
2018-07-07T05:24:51.802Z,22.39
2018-07-07T05:27:21.051Z,21.85
2018-07-07T05:29:50.290Z,22.04
2018-07-07T05:32:19.668Z,21.24
2018-07-07T05:34:48.910Z,21.11
2018-07-07T05:37:18.298Z,21.34
2018-07-07T05:39:47.598Z,22.85
2018-07-07T05:42:16.906Z,22.46
2018-07-07T05:44:46.206Z,22.50
2018-07-07T05:47:15.610Z,23.85
2018-07-07T05:49:51.416Z,25.49
2018-07-07T05:52:20.723Z,24.92
2018-07-07T05:54:49.916Z,25.71
2018-07-07T05:57:19.181Z,26.32
2018-07-07T05:59:48.411Z,25.59
2018-07-07T06:02:17.745Z,26.03
2018-07-07T06:04:47.263Z,28.16
2018-07-07T06:07:16.572Z,27.91
2018-07-07T06:09:45.841Z,26.82
2018-07-07T06:12:15.153Z,25.75
2018-07-07T06:14:44.554Z,24.78
2018-07-07T06:17:13.992Z,25.33
2018-07-07T06:19:43.281Z,25.76
2018-07-07T06:22:12.558Z,24.07
2018-07-07T06:24:41.734Z,25.15
2018-07-07T06:27:10.974Z,25.59
2018-07-07T06:29:40.371Z,25.96
2018-07-07T06:32:09.699Z,25.68
2018-07-07T06:34:39.062Z,26.02
2018-07-07T06:37:08.375Z,24.96
2018-07-07T06:39:37.663Z,26.15
2018-07-07T06:42:07.225Z,26.64
2018-07-07T06:44:36.566Z,25.96
2018-07-07T06:47:06.095Z,25.30
2018-07-07T06:49:35.397Z,25.17
2018-07-07T06:52:06.538Z,26.15
2018-07-07T06:54:35.905Z,26.34
2018-07-07T06:57:05.279Z,26.81
2018-07-07T06:59:34.570Z,25.17
2018-07-07T07:02:03.834Z,25.89
2018-07-07T07:04:33.094Z,26.59
2018-07-07T07:07:02.448Z,26.16
2018-07-07T07:09:31.718Z,27.28
2018-07-07T07:12:01.256Z,27.65
2018-07-07T07:14:31.932Z,25.99
2018-07-07T07:17:01.405Z,24.77
2018-07-07T07:19:30.674Z,26.18
2018-07-07T07:21:59.942Z,25.78
2018-07-07T07:24:29.195Z,26.53
2018-07-07T07:26:58.495Z,27.14
2018-07-07T07:29:27.732Z,26.69
2018-07-07T07:31:57.141Z,28.19
2018-07-07T07:34:26.339Z,28.96
2018-07-07T07:36:55.623Z,29.22
2018-07-07T07:39:24.857Z,29.17
2018-07-07T07:41:54.189Z,27.53
2018-07-07T07:44:23.492Z,26.09
2018-07-07T07:46:52.688Z,26.60
2018-07-07T07:49:21.938Z,26.23
2018-07-07T07:51:51.294Z,26.81
2018-07-07T07:54:20.583Z,27.46
2018-07-07T07:56:49.948Z,26.23
2018-07-07T07:59:19.181Z,26.66
2018-07-07T08:01:48.502Z,28.48
2018-07-07T08:04:17.789Z,28.54
2018-07-07T08:06:47.096Z,29.32
2018-07-07T08:09:16.347Z,27.92
2018-07-07T08:11:45.594Z,28.34
2018-07-07T08:14:14.910Z,28.14
2018-07-07T08:16:44.547Z,29.10
2018-07-07T08:19:14.155Z,27.70
2018-07-07T08:21:43.921Z,27.27
2018-07-07T08:24:13.323Z,27.25
2018-07-07T08:26:42.745Z,27.46
2018-07-07T08:29:11.647Z,28.70
2018-07-07T08:31:40.610Z,28.77
2018-07-07T08:34:09.554Z,29.12
2018-07-07T08:36:38.687Z,28.55
2018-07-07T08:39:07.705Z,28.81
2018-07-07T08:41:36.714Z,29.80
2018-07-07T08:44:06.188Z,27.70
2018-07-07T08:46:35.498Z,27.33
2018-07-07T08:49:04.966Z,27.18
2018-07-07T08:51:34.310Z,26.50
2018-07-07T08:54:03.528Z,27.64
2018-07-07T08:56:32.807Z,28.33
2018-07-07T08:59:02.067Z,29.19
2018-07-07T09:01:31.286Z,29.44
2018-07-07T09:04:00.758Z,29.57
2018-07-07T09:06:30.282Z,29.51
2018-07-07T09:08:59.710Z,29.60
2018-07-07T09:11:29.029Z,28.34
2018-07-07T09:13:58.389Z,29.23
2018-07-07T09:16:27.607Z,26.95
2018-07-07T09:18:56.967Z,27.97
2018-07-07T09:21:26.231Z,29.37
2018-07-07T09:23:55.507Z,28.32
2018-07-07T09:26:24.812Z,28.71
2018-07-07T09:28:53.982Z,28.16
2018-07-07T09:31:23.227Z,28.21
2018-07-07T09:33:52.544Z,29.50
2018-07-07T09:36:21.808Z,30.98
2018-07-07T09:38:51.253Z,30.87
2018-07-07T09:41:20.468Z,31.53
2018-07-07T09:43:49.707Z,31.21
2018-07-07T09:46:19.046Z,31.49
2018-07-07T09:48:48.327Z,31.30
2018-07-07T09:51:17.594Z,30.63
2018-07-07T09:53:47.012Z,31.34
2018-07-07T09:56:16.318Z,29.12
2018-07-07T09:58:45.614Z,28.71
2018-07-07T10:01:14.897Z,29.51
2018-07-07T10:03:44.115Z,30.76
2018-07-07T10:06:13.442Z,31.18
2018-07-07T10:08:42.862Z,31.53
2018-07-07T10:11:12.086Z,31.98
2018-07-07T10:13:41.527Z,31.89
2018-07-07T10:16:10.885Z,31.36
2018-07-07T10:18:40.125Z,32.94
2018-07-07T10:21:09.527Z,30.29
2018-07-07T10:23:38.935Z,29.20
2018-07-07T10:26:08.327Z,29.69
2018-07-07T10:28:37.648Z,31.07
2018-07-07T10:31:07.014Z,32.09
2018-07-07T10:33:36.350Z,34.47
2018-07-07T10:36:05.635Z,33.01
2018-07-07T10:38:35.050Z,32.02
2018-07-07T10:41:04.547Z,32.37
2018-07-07T10:43:33.994Z,34.49
2018-07-07T10:46:03.329Z,34.98
2018-07-07T10:48:33.821Z,34.18
2018-07-07T10:51:03.126Z,34.25
2018-07-07T10:53:32.488Z,34.12
2018-07-07T10:56:01.887Z,35.38
2018-07-07T10:58:31.211Z,35.96
2018-07-07T11:01:00.550Z,35.76
2018-07-07T11:03:29.732Z,35.43
2018-07-07T11:05:58.692Z,34.92
2018-07-07T11:08:27.811Z,33.77
2018-07-07T11:10:57.123Z,33.31
2018-07-07T11:13:26.479Z,33.84
2018-07-07T11:15:55.683Z,34.00
2018-07-07T11:18:24.978Z,32.00
2018-07-07T11:20:54.276Z,31.81
2018-07-07T11:23:23.675Z,32.81
2018-07-07T11:25:52.965Z,33.96
2018-07-07T11:28:22.306Z,34.47
2018-07-07T11:30:51.814Z,34.03
2018-07-07T11:33:21.087Z,33.63
2018-07-07T11:35:50.297Z,32.79
2018-07-07T11:38:19.600Z,33.22
2018-07-07T11:40:48.991Z,33.32
2018-07-07T11:43:18.392Z,34.16
2018-07-07T11:45:47.686Z,34.33
2018-07-07T11:48:17.101Z,34.85
2018-07-07T11:50:46.469Z,35.43
2018-07-07T11:53:15.714Z,35.63
2018-07-07T11:55:44.954Z,35.84
2018-07-07T11:58:14.475Z,34.46
2018-07-07T12:00:43.762Z,34.78
2018-07-07T12:03:13.105Z,34.70
2018-07-07T12:05:42.344Z,35.38
2018-07-07T12:08:13.991Z,35.47
2018-07-07T12:10:40.910Z,35.26
2018-07-07T12:13:10.306Z,35.62
2018-07-07T12:15:39.609Z,35.70
2018-07-07T12:18:08.917Z,35.88
2018-07-07T12:20:38.154Z,35.47
2018-07-07T12:23:07.509Z,35.58
2018-07-07T12:25:36.754Z,34.65
2018-07-07T12:28:05.994Z,34.97
2018-07-07T12:30:35.410Z,35.82
2018-07-07T12:33:04.814Z,34.80
2018-07-07T12:35:34.119Z,34.81
2018-07-07T12:38:03.542Z,34.81
2018-07-07T12:40:32.839Z,34.95
2018-07-07T12:43:02.238Z,34.68
2018-07-07T12:45:31.676Z,34.87
2018-07-07T12:48:01.023Z,34.97
2018-07-07T12:50:30.327Z,35.18
2018-07-07T12:52:59.732Z,35.43
2018-07-07T12:55:29.655Z,34.60
2018-07-07T12:57:59.074Z,34.55
2018-07-07T13:00:28.426Z,34.09
2018-07-07T13:02:57.774Z,34.59
2018-07-07T13:05:27.001Z,34.90
2018-07-07T13:07:56.204Z,34.61
2018-07-07T13:10:25.758Z,34.26
2018-07-07T13:12:55.116Z,34.48
2018-07-07T13:15:24.423Z,34.53
2018-07-07T13:17:53.628Z,34.69
2018-07-07T13:20:22.964Z,34.76
2018-07-07T13:22:52.259Z,34.80
2018-07-07T13:25:21.560Z,34.64
2018-07-07T13:27:50.809Z,34.92
2018-07-07T13:30:20.060Z,34.88
2018-07-07T13:32:49.206Z,35.09
2018-07-07T13:35:18.441Z,35.25
2018-07-07T13:37:47.756Z,35.12
2018-07-07T13:40:17.155Z,35.23
2018-07-07T13:42:46.330Z,35.11
2018-07-07T13:45:15.739Z,35.59
2018-07-07T13:47:45.059Z,36.05
2018-07-07T13:50:14.361Z,36.37
2018-07-07T13:52:43.623Z,36.13
2018-07-07T13:55:12.955Z,36.55
2018-07-07T13:57:42.362Z,36.67
2018-07-07T14:00:11.773Z,36.64
2018-07-07T14:02:41.046Z,36.41
2018-07-07T14:05:10.474Z,36.54
2018-07-07T14:07:39.709Z,36.81
2018-07-07T14:10:08.975Z,36.72
2018-07-07T14:12:38.224Z,36.23
2018-07-07T14:15:07.459Z,35.93
2018-07-07T14:17:36.962Z,35.88
2018-07-07T14:20:06.155Z,36.50
2018-07-07T14:22:35.422Z,36.87
2018-07-07T14:25:04.908Z,36.96
2018-07-07T14:27:34.145Z,36.55
2018-07-07T14:30:03.576Z,36.34
2018-07-07T14:32:32.883Z,36.21
2018-07-07T14:35:02.183Z,35.67
2018-07-07T14:37:31.544Z,36.34
2018-07-07T14:40:01.757Z,35.16
2018-07-07T14:42:48.926Z,35.55
2018-07-07T14:45:28.116Z,36.33
2018-07-07T14:48:02.605Z,36.42
2018-07-07T14:50:31.894Z,36.72
2018-07-07T14:53:01.079Z,36.09
2018-07-07T14:55:30.653Z,35.52
2018-07-07T14:57:59.941Z,35.73
2018-07-07T15:00:29.806Z,36.31
2018-07-07T15:02:59.231Z,36.60
2018-07-07T15:05:28.502Z,36.34
2018-07-07T15:07:57.885Z,35.95
2018-07-07T15:10:27.725Z,35.48
2018-07-07T15:12:57.490Z,35.74
2018-07-07T15:15:27.452Z,35.61
2018-07-07T15:17:56.851Z,36.37
2018-07-07T15:20:26.839Z,35.65
2018-07-07T15:22:56.204Z,35.76
2018-07-07T15:25:25.458Z,36.24
2018-07-07T15:27:54.764Z,36.14
2018-07-07T15:30:24.092Z,35.96
2018-07-07T15:32:53.349Z,35.40
2018-07-07T15:35:22.659Z,35.58
2018-07-07T15:37:52.028Z,35.97
2018-07-07T15:40:21.378Z,36.06
2018-07-07T15:42:50.694Z,35.76
2018-07-07T15:45:20.079Z,35.30
2018-07-07T15:47:49.555Z,35.11
2018-07-07T15:50:18.987Z,34.71
2018-07-07T15:52:48.243Z,34.50
2018-07-07T15:55:17.394Z,34.75
2018-07-07T15:57:46.792Z,34.51
2018-07-07T16:00:16.184Z,34.66
2018-07-07T16:02:45.494Z,34.88
2018-07-07T16:05:14.798Z,34.81
2018-07-07T16:07:44.058Z,35.13
2018-07-07T16:10:13.878Z,34.87
2018-07-07T16:12:42.810Z,34.86
2018-07-07T16:15:12.299Z,34.91
2018-07-07T16:17:41.567Z,35.37
2018-07-07T16:20:11.102Z,35.50
2018-07-07T16:22:40.258Z,34.82
2018-07-07T16:25:09.626Z,34.39
2018-07-07T16:27:38.959Z,33.55
2018-07-07T16:30:08.306Z,33.42
2018-07-07T16:32:37.597Z,33.64
2018-07-07T16:35:06.914Z,33.07
2018-07-07T16:37:36.168Z,33.07
2018-07-07T16:40:05.535Z,32.60
2018-07-07T16:42:36.924Z,32.86
2018-07-07T16:45:06.313Z,33.12
2018-07-07T16:47:35.438Z,33.14
2018-07-07T16:50:04.860Z,33.22
2018-07-07T16:52:34.055Z,33.25
2018-07-07T16:55:03.451Z,33.10
2018-07-07T16:57:32.840Z,33.22
2018-07-07T17:00:02.296Z,32.75
2018-07-07T17:02:31.547Z,32.46
2018-07-07T17:05:00.788Z,32.57
2018-07-07T17:07:30.457Z,32.74
2018-07-07T17:10:00.005Z,32.68
2018-07-07T17:12:29.325Z,32.49
2018-07-07T17:14:58.778Z,32.43
2018-07-07T17:17:28.159Z,32.41
2018-07-07T17:19:57.574Z,32.37
2018-07-07T17:22:26.995Z,31.62
2018-07-07T17:24:56.353Z,31.44
2018-07-07T17:27:26.522Z,31.54
2018-07-07T17:29:55.794Z,31.34
2018-07-07T17:32:25.010Z,31.43
2018-07-07T17:34:54.361Z,31.57
2018-07-07T17:37:23.747Z,31.54
2018-07-07T17:39:53.084Z,31.44
2018-07-07T17:42:22.360Z,31.58
2018-07-07T17:44:51.701Z,31.78
2018-07-07T17:47:21.128Z,31.41
2018-07-07T17:49:50.378Z,31.38
2018-07-07T17:52:19.607Z,30.85
2018-07-07T17:54:48.897Z,30.64
2018-07-07T17:57:18.234Z,30.54
2018-07-07T17:59:47.473Z,31.15
2018-07-07T18:02:16.927Z,31.03
2018-07-07T18:04:46.233Z,30.73
2018-07-07T18:07:15.633Z,30.72
2018-07-07T18:09:44.899Z,30.72
2018-07-07T18:12:14.302Z,30.62
2018-07-07T18:14:43.491Z,30.74
2018-07-07T18:17:12.722Z,30.63
2018-07-07T18:19:42.089Z,30.88
2018-07-07T18:22:11.350Z,30.70
2018-07-07T18:24:40.573Z,30.68
2018-07-07T18:27:10.055Z,30.22
2018-07-07T18:29:39.393Z,30.18
2018-07-07T18:32:08.751Z,30.32
2018-07-07T18:34:38.007Z,30.20
2018-07-07T18:37:07.455Z,30.24
2018-07-07T18:39:36.755Z,30.41
2018-07-07T18:42:06.056Z,30.34
2018-07-07T18:44:35.306Z,30.40
2018-07-07T18:47:04.640Z,30.19
2018-07-07T18:49:34.386Z,30.34
2018-07-07T18:52:03.765Z,30.25
2018-07-07T18:54:33.065Z,30.20
2018-07-07T18:57:02.419Z,30.11
2018-07-07T18:59:31.659Z,30.21
2018-07-07T19:02:00.980Z,30.03
2018-07-07T19:04:30.222Z,30.01
2018-07-07T19:06:59.553Z,29.79
2018-07-07T19:09:28.729Z,29.91
2018-07-07T19:11:57.974Z,29.75
2018-07-07T19:14:27.231Z,29.79
2018-07-07T19:16:56.584Z,29.72
2018-07-07T19:19:25.836Z,29.54
2018-07-07T19:22:00.190Z,29.33
2018-07-07T19:24:34.495Z,29.37
2018-07-07T19:27:05.401Z,29.28
2018-07-07T19:29:34.591Z,29.40
2018-07-07T19:32:08.850Z,29.31
2018-07-07T19:34:43.209Z,29.18
2018-07-07T19:37:17.287Z,28.82
2018-07-07T19:39:47.150Z,28.90
2018-07-07T19:42:16.563Z,28.54
2018-07-07T19:44:45.770Z,28.49
2018-07-07T19:47:15.004Z,28.49
2018-07-07T19:49:44.304Z,28.42
2018-07-07T19:52:13.699Z,28.22
2018-07-07T19:54:43.110Z,28.22
2018-07-07T19:57:12.538Z,28.18
2018-07-07T19:59:41.798Z,27.85
2018-07-07T20:02:11.118Z,28.09
2018-07-07T20:04:40.382Z,28.00
2018-07-07T20:07:09.620Z,27.97
2018-07-07T20:09:38.742Z,27.69
2018-07-07T20:12:08.014Z,27.58
2018-07-07T20:14:37.262Z,27.37
2018-07-07T20:17:10.778Z,27.69
2018-07-07T20:20:59.059Z,27.52
2018-07-07T20:23:30.202Z,27.32
2018-07-07T20:26:02.211Z,27.48
2018-07-07T20:28:36.504Z,27.26
2018-07-07T20:31:05.712Z,26.55
2018-07-07T20:33:34.981Z,27.08
2018-07-07T20:36:04.135Z,27.04
2018-07-07T20:38:33.135Z,26.78
2018-07-07T20:41:03.332Z,26.82
2018-07-07T20:43:32.687Z,26.73
2018-07-07T20:46:02.188Z,26.74
2018-07-07T20:48:31.550Z,26.94
2018-07-07T20:51:00.783Z,26.88
2018-07-07T20:53:30.301Z,26.54
2018-07-07T20:55:59.564Z,26.60
2018-07-07T20:58:28.804Z,26.65
2018-07-07T21:00:58.175Z,26.72
2018-07-07T21:03:27.409Z,26.65
2018-07-07T21:05:56.677Z,26.69
2018-07-07T21:08:25.972Z,26.62
2018-07-07T21:10:55.324Z,26.49
2018-07-07T21:13:24.612Z,26.62
2018-07-07T21:15:53.841Z,26.50
2018-07-07T21:18:23.194Z,26.25
2018-07-07T21:20:52.412Z,26.30
2018-07-07T21:23:21.852Z,26.42
2018-07-07T21:25:51.318Z,26.33
2018-07-07T21:28:20.643Z,26.30
2018-07-07T21:30:50.082Z,26.10
2018-07-07T21:33:19.323Z,26.02
2018-07-07T21:35:48.577Z,26.10
2018-07-07T21:38:17.941Z,25.96
2018-07-07T21:40:47.167Z,26.06
2018-07-07T21:43:16.535Z,26.08
2018-07-07T21:45:45.808Z,26.16
2018-07-07T21:48:15.129Z,26.03
2018-07-07T21:50:44.412Z,25.76
2018-07-07T21:53:13.740Z,25.75
2018-07-07T21:55:43.132Z,25.73
2018-07-07T21:58:17.461Z,25.36
2018-07-07T22:01:02.830Z,25.55
2018-07-07T22:03:37.327Z,25.52
2018-07-07T22:06:08.626Z,25.60
2018-07-07T22:08:38.353Z,25.48
2018-07-07T22:11:07.914Z,25.60
2018-07-07T22:13:37.231Z,25.54
2018-07-07T22:16:06.602Z,25.39
2018-07-07T22:18:36.031Z,25.46
2018-07-07T22:21:16.282Z,25.46
2018-07-07T22:23:45.813Z,25.37
2018-07-07T22:26:15.044Z,25.26
2018-07-07T22:28:44.281Z,25.44
2018-07-07T22:31:13.518Z,25.59
2018-07-07T22:33:42.778Z,25.43
2018-07-07T22:36:16.941Z,25.28
2018-07-07T22:38:51.103Z,25.24
2018-07-07T22:41:20.668Z,25.24
2018-07-07T22:43:50.006Z,25.13
2018-07-07T22:46:19.365Z,25.25
2018-07-07T22:48:48.635Z,25.26
2018-07-07T22:51:17.885Z,25.19
2018-07-07T22:53:47.107Z,25.09
2018-07-07T22:56:16.362Z,24.97
2018-07-07T22:58:45.653Z,25.01
2018-07-07T23:01:14.904Z,25.15
2018-07-07T23:03:44.218Z,25.02
2018-07-07T23:06:13.623Z,25.04
2018-07-07T23:08:43.310Z,25.02
2018-07-07T23:11:12.642Z,25.23
2018-07-07T23:13:41.883Z,25.30
2018-07-07T23:16:11.236Z,25.00
2018-07-07T23:18:40.498Z,25.17
2018-07-07T23:21:09.730Z,25.27
2018-07-07T23:23:39.003Z,25.00
2018-07-07T23:26:08.242Z,24.75
2018-07-07T23:28:37.522Z,24.68
2018-07-07T23:31:06.937Z,24.75
2018-07-07T23:33:36.318Z,24.76
2018-07-07T23:36:05.610Z,24.66
2018-07-07T23:38:35.035Z,24.45
2018-07-07T23:41:04.257Z,24.65
2018-07-07T23:43:33.524Z,24.83
2018-07-07T23:46:03.050Z,25.01
2018-07-07T23:48:32.530Z,23.64
2018-07-07T23:51:01.817Z,24.12
2018-07-07T23:53:30.993Z,22.78
2018-07-07T23:56:00.350Z,23.52
2018-07-07T23:58:29.614Z,23.18
